Lewis, Kansas
Current Conditions -  °F | °C
As of 3:15 PM on Saturday 22 Nov 2014 (Local Time) from KPTT Reporting Station
Haze Haze  
Wind Chill: 54°   Ceiling: 100
Heat Index: 54°   Visibility: 1mi
Dew Point: 52°   Wind: 14mph
Humidity: 94%   Direction: 180°S
Pressure: 29.72"   Gusts: NA
Location:  37.94°N, 99.25°W
Report Text: KPTT 222115Z AUTO 18012KT 1SM BR OVC001 12/11 A2972 RMK AO2 LTG DSNT S
Loading
Personal Weather Stations






























Interactive Weather Map New forecast layout! Learn more

10-Day Weather Forecast

Advertisements
Track Severe Weather on mobile